sensor_id;sensor_type;location;lat;lon;timestamp;temperature;humidity
24800;DHT22;12897;50.812;4.430;2023-02-05T00:01:45;10.10;99.90
24800;DHT22;12897;50.812;4.430;2023-02-05T00:04:12;10.10;99.90
24800;DHT22;12897;50.812;4.430;2023-02-05T00:06:40;10.10;99.90
24800;DHT22;12897;50.812;4.430;2023-02-05T00:09:07;10.20;99.90
24800;DHT22;12897;50.812;4.430;2023-02-05T00:11:35;10.20;99.90
24800;DHT22;12897;50.812;4.430;2023-02-05T00:14:03;10.10;99.90
24800;DHT22;12897;50.812;4.430;2023-02-05T00:16:31;10.20;99.90
24800;DHT22;12897;50.812;4.430;2023-02-05T00:18:59;10.30;99.90
24800;DHT22;12897;50.812;4.430;2023-02-05T00:21:27;10.20;99.90
24800;DHT22;12897;50.812;4.430;2023-02-05T00:23:55;10.30;99.90
24800;DHT22;12897;50.812;4.430;2023-02-05T00:26:22;10.20;99.90
24800;DHT22;12897;50.812;4.430;2023-02-05T00:28:50;10.30;99.90
24800;DHT22;12897;50.812;4.430;2023-02-05T00:31:21;10.20;99.90
24800;DHT22;12897;50.812;4.430;2023-02-05T00:33:49;10.20;99.90
24800;DHT22;12897;50.812;4.430;2023-02-05T00:36:20;10.10;99.90
24800;DHT22;12897;50.812;4.430;2023-02-05T00:38:47;10.20;99.90
24800;DHT22;12897;50.812;4.430;2023-02-05T00:41:15;10.10;99.90
24800;DHT22;12897;50.812;4.430;2023-02-05T00:43:43;10.20;99.90
24800;DHT22;12897;50.812;4.430;2023-02-05T00:46:12;10.20;99.90
24800;DHT22;12897;50.812;4.430;2023-02-05T00:48:41;10.10;99.90
24800;DHT22;12897;50.812;4.430;2023-02-05T00:51:09;10.10;99.90
24800;DHT22;12897;50.812;4.430;2023-02-05T00:53:37;10.10;99.90
24800;DHT22;12897;50.812;4.430;2023-02-05T00:56:05;10.10;99.90
24800;DHT22;12897;50.812;4.430;2023-02-05T00:58:33;10.20;99.90
24800;DHT22;12897;50.812;4.430;2023-02-05T01:01:02;10.30;99.90
24800;DHT22;12897;50.812;4.430;2023-02-05T01:03:30;10.30;99.90
24800;DHT22;12897;50.812;4.430;2023-02-05T01:05:57;10.30;99.90
24800;DHT22;12897;50.812;4.430;2023-02-05T01:08:25;10.20;99.90
24800;DHT22;12897;50.812;4.430;2023-02-05T01:10:52;10.30;99.90
24800;DHT22;12897;50.812;4.430;2023-02-05T01:13:21;10.20;99.90
24800;DHT22;12897;50.812;4.430;2023-02-05T01:15:49;10.20;99.90
24800;DHT22;12897;50.812;4.430;2023-02-05T01:18:16;10.20;99.90
24800;DHT22;12897;50.812;4.430;2023-02-05T01:20:44;10.30;99.90
24800;DHT22;12897;50.812;4.430;2023-02-05T01:23:12;10.20;99.90
24800;DHT22;12897;50.812;4.430;2023-02-05T01:25:39;10.30;99.90
24800;DHT22;12897;50.812;4.430;2023-02-05T01:28:07;10.30;99.90
24800;DHT22;12897;50.812;4.430;2023-02-05T01:30:35;10.30;99.90
24800;DHT22;12897;50.812;4.430;2023-02-05T01:33:03;10.20;99.90
24800;DHT22;12897;50.812;4.430;2023-02-05T01:35:31;10.20;99.90
24800;DHT22;12897;50.812;4.430;2023-02-05T01:37:59;10.20;99.90
24800;DHT22;12897;50.812;4.430;2023-02-05T01:40:26;10.10;99.90
24800;DHT22;12897;50.812;4.430;2023-02-05T01:42:54;10.20;99.90
24800;DHT22;12897;50.812;4.430;2023-02-05T01:47:56;10.00;99.90
24800;DHT22;12897;50.812;4.430;2023-02-05T01:50:31;10.10;99.90
24800;DHT22;12897;50.812;4.430;2023-02-05T01:52:57;9.90;99.90
24800;DHT22;12897;50.812;4.430;2023-02-05T01:55:26;9.90;99.90
24800;DHT22;12897;50.812;4.430;2023-02-05T01:57:54;10.00;99.90
24800;DHT22;12897;50.812;4.430;2023-02-05T02:00:23;9.90;99.90
24800;DHT22;12897;50.812;4.430;2023-02-05T02:02:51;9.90;99.90
24800;DHT22;12897;50.812;4.430;2023-02-05T02:05:21;9.90;99.90
24800;DHT22;12897;50.812;4.430;2023-02-05T02:07:47;9.70;99.90
24800;DHT22;12897;50.812;4.430;2023-02-05T02:10:17;9.70;99.90
24800;DHT22;12897;50.812;4.430;2023-02-05T02:12:45;9.70;99.90
24800;DHT22;12897;50.812;4.430;2023-02-05T02:15:19;9.70;99.90
24800;DHT22;12897;50.812;4.430;2023-02-05T02:17:48;9.70;99.90
24800;DHT22;12897;50.812;4.430;2023-02-05T02:20:19;9.60;99.90
24800;DHT22;12897;50.812;4.430;2023-02-05T02:28:34;9.50;99.90
24800;DHT22;12897;50.812;4.430;2023-02-05T02:31:05;9.50;99.90
24800;DHT22;12897;50.812;4.430;2023-02-05T02:33:43;9.60;99.90
24800;DHT22;12897;50.812;4.430;2023-02-05T02:36:28;9.60;99.90
24800;DHT22;12897;50.812;4.430;2023-02-05T02:39:07;9.60;99.90
24800;DHT22;12897;50.812;4.430;2023-02-05T02:41:50;9.60;99.90
24800;DHT22;12897;50.812;4.430;2023-02-05T02:44:25;9.60;99.90
24800;DHT22;12897;50.812;4.430;2023-02-05T02:46:52;9.80;99.90
24800;DHT22;12897;50.812;4.430;2023-02-05T02:49:31;9.70;99.90
24800;DHT22;12897;50.812;4.430;2023-02-05T02:52:01;9.60;99.90
24800;DHT22;12897;50.812;4.430;2023-02-05T02:54:32;9.60;99.90
24800;DHT22;12897;50.812;4.430;2023-02-05T02:57:02;9.60;99.90
24800;DHT22;12897;50.812;4.430;2023-02-05T02:59:33;9.60;99.90
24800;DHT22;12897;50.812;4.430;2023-02-05T03:02:04;9.40;99.90
24800;DHT22;12897;50.812;4.430;2023-02-05T03:04:47;9.40;99.90
24800;DHT22;12897;50.812;4.430;2023-02-05T03:07:30;9.40;99.90
24800;DHT22;12897;50.812;4.430;2023-02-05T03:10:17;9.40;99.90
24800;DHT22;12897;50.812;4.430;2023-02-05T03:12:42;9.50;99.90
24800;DHT22;12897;50.812;4.430;2023-02-05T03:15:10;9.50;99.90
24800;DHT22;12897;50.812;4.430;2023-02-05T03:17:39;9.40;99.90
24800;DHT22;12897;50.812;4.430;2023-02-05T03:20:28;9.40;99.90
24800;DHT22;12897;50.812;4.430;2023-02-05T03:22:56;9.40;99.90
24800;DHT22;12897;50.812;4.430;2023-02-05T03:25:26;9.30;99.90
24800;DHT22;12897;50.812;4.430;2023-02-05T03:27:56;9.30;99.90
24800;DHT22;12897;50.812;4.430;2023-02-05T03:30:28;9.30;99.90
24800;DHT22;12897;50.812;4.430;2023-02-05T03:36:07;9.30;99.90
24800;DHT22;12897;50.812;4.430;2023-02-05T03:41:29;9.30;99.90
24800;DHT22;12897;50.812;4.430;2023-02-05T03:43:59;9.40;99.90
24800;DHT22;12897;50.812;4.430;2023-02-05T03:46:32;9.40;99.90
24800;DHT22;12897;50.812;4.430;2023-02-05T03:49:06;9.50;99.90
24800;DHT22;12897;50.812;4.430;2023-02-05T03:59:25;9.30;99.90
24800;DHT22;12897;50.812;4.430;2023-02-05T04:01:54;9.30;99.90
24800;DHT22;12897;50.812;4.430;2023-02-05T04:04:22;9.40;99.90
24800;DHT22;12897;50.812;4.430;2023-02-05T04:06:51;9.30;99.90
24800;DHT22;12897;50.812;4.430;2023-02-05T04:09:19;9.30;99.90
24800;DHT22;12897;50.812;4.430;2023-02-05T04:11:47;9.20;99.90
24800;DHT22;12897;50.812;4.430;2023-02-05T04:14:14;9.30;99.90
24800;DHT22;12897;50.812;4.430;2023-02-05T04:16:42;9.20;99.90
24800;DHT22;12897;50.812;4.430;2023-02-05T04:19:09;9.20;99.90
24800;DHT22;12897;50.812;4.430;2023-02-05T04:21:39;9.30;99.90
24800;DHT22;12897;50.812;4.430;2023-02-05T04:24:06;9.30;99.90
24800;DHT22;12897;50.812;4.430;2023-02-05T04:26:34;9.40;99.90
24800;DHT22;12897;50.812;4.430;2023-02-05T04:29:02;9.40;99.90
24800;DHT22;12897;50.812;4.430;2023-02-05T04:31:30;9.40;99.90
24800;DHT22;12897;50.812;4.430;2023-02-05T04:33:57;9.40;99.90
24800;DHT22;12897;50.812;4.430;2023-02-05T04:36:25;9.40;99.90
24800;DHT22;12897;50.812;4.430;2023-02-05T04:38:52;9.30;99.90
24800;DHT22;12897;50.812;4.430;2023-02-05T04:41:20;9.10;99.90
24800;DHT22;12897;50.812;4.430;2023-02-05T04:43:48;9.10;99.90
24800;DHT22;12897;50.812;4.430;2023-02-05T04:46:15;9.20;99.90
24800;DHT22;12897;50.812;4.430;2023-02-05T04:48:43;9.10;99.90
24800;DHT22;12897;50.812;4.430;2023-02-05T04:51:13;9.10;99.90
24800;DHT22;12897;50.812;4.430;2023-02-05T04:53:40;9.00;99.90
24800;DHT22;12897;50.812;4.430;2023-02-05T04:56:15;9.00;99.90
24800;DHT22;12897;50.812;4.430;2023-02-05T04:58:44;9.10;99.90
24800;DHT22;12897;50.812;4.430;2023-02-05T05:01:18;9.00;99.90
24800;DHT22;12897;50.812;4.430;2023-02-05T05:03:46;9.10;99.90
24800;DHT22;12897;50.812;4.430;2023-02-05T05:06:14;9.10;99.90
24800;DHT22;12897;50.812;4.430;2023-02-05T05:08:43;9.00;99.90
24800;DHT22;12897;50.812;4.430;2023-02-05T05:11:13;9.00;99.90
24800;DHT22;12897;50.812;4.430;2023-02-05T05:13:41;8.90;99.90
24800;DHT22;12897;50.812;4.430;2023-02-05T05:16:10;9.00;99.90
24800;DHT22;12897;50.812;4.430;2023-02-05T05:18:38;9.00;99.90
24800;DHT22;12897;50.812;4.430;2023-02-05T05:21:06;8.90;99.90
24800;DHT22;12897;50.812;4.430;2023-02-05T05:23:34;8.80;99.90
24800;DHT22;12897;50.812;4.430;2023-02-05T05:26:06;8.70;99.90
24800;DHT22;12897;50.812;4.430;2023-02-05T05:28:35;8.70;99.90
24800;DHT22;12897;50.812;4.430;2023-02-05T05:31:08;8.70;99.90
24800;DHT22;12897;50.812;4.430;2023-02-05T05:33:36;8.60;99.90
24800;DHT22;12897;50.812;4.430;2023-02-05T05:36:05;8.70;99.90
24800;DHT22;12897;50.812;4.430;2023-02-05T05:38:33;8.70;99.90
24800;DHT22;12897;50.812;4.430;2023-02-05T05:41:01;8.50;99.90
24800;DHT22;12897;50.812;4.430;2023-02-05T05:43:47;8.50;99.90
24800;DHT22;12897;50.812;4.430;2023-02-05T05:46:18;8.60;99.90
24800;DHT22;12897;50.812;4.430;2023-02-05T05:48:50;8.60;99.90
24800;DHT22;12897;50.812;4.430;2023-02-05T05:51:19;8.60;99.90
24800;DHT22;12897;50.812;4.430;2023-02-05T05:53:47;8.60;99.90
24800;DHT22;12897;50.812;4.430;2023-02-05T05:56:15;8.60;99.90
24800;DHT22;12897;50.812;4.430;2023-02-05T05:58:44;8.60;99.90
24800;DHT22;12897;50.812;4.430;2023-02-05T06:01:13;8.40;99.90
24800;DHT22;12897;50.812;4.430;2023-02-05T06:03:41;8.40;99.90
24800;DHT22;12897;50.812;4.430;2023-02-05T06:06:10;8.30;99.90
24800;DHT22;12897;50.812;4.430;2023-02-05T06:08:38;8.30;99.90
24800;DHT22;12897;50.812;4.430;2023-02-05T06:11:05;8.30;99.90
24800;DHT22;12897;50.812;4.430;2023-02-05T06:13:33;8.30;99.90
24800;DHT22;12897;50.812;4.430;2023-02-05T06:16:01;8.30;99.90
24800;DHT22;12897;50.812;4.430;2023-02-05T06:18:29;8.30;99.90
24800;DHT22;12897;50.812;4.430;2023-02-05T06:20:57;8.40;99.90
24800;DHT22;12897;50.812;4.430;2023-02-05T06:23:24;8.30;99.90
24800;DHT22;12897;50.812;4.430;2023-02-05T06:25:52;8.30;99.90
24800;DHT22;12897;50.812;4.430;2023-02-05T06:28:19;8.30;99.90
24800;DHT22;12897;50.812;4.430;2023-02-05T06:30:47;8.20;99.90
24800;DHT22;12897;50.812;4.430;2023-02-05T06:33:15;8.20;99.90
24800;DHT22;12897;50.812;4.430;2023-02-05T06:35:42;8.20;99.90
24800;DHT22;12897;50.812;4.430;2023-02-05T06:38:10;8.20;99.90
24800;DHT22;12897;50.812;4.430;2023-02-05T06:40:37;8.20;99.90
24800;DHT22;12897;50.812;4.430;2023-02-05T06:43:05;8.20;99.90
24800;DHT22;12897;50.812;4.430;2023-02-05T06:45:32;8.30;99.90
24800;DHT22;12897;50.812;4.430;2023-02-05T06:48:00;8.30;99.90
24800;DHT22;12897;50.812;4.430;2023-02-05T06:50:27;8.40;99.90
24800;DHT22;12897;50.812;4.430;2023-02-05T06:52:55;8.30;99.90
24800;DHT22;12897;50.812;4.430;2023-02-05T06:55:22;8.10;99.90
24800;DHT22;12897;50.812;4.430;2023-02-05T06:57:50;8.10;99.90
24800;DHT22;12897;50.812;4.430;2023-02-05T07:00:18;8.10;99.90
24800;DHT22;12897;50.812;4.430;2023-02-05T07:02:45;8.10;99.90
24800;DHT22;12897;50.812;4.430;2023-02-05T07:05:13;8.00;99.90
24800;DHT22;12897;50.812;4.430;2023-02-05T07:07:40;7.90;99.90
24800;DHT22;12897;50.812;4.430;2023-02-05T07:10:08;7.90;99.90
24800;DHT22;12897;50.812;4.430;2023-02-05T07:12:36;7.90;99.90
24800;DHT22;12897;50.812;4.430;2023-02-05T07:15:03;7.90;99.90
24800;DHT22;12897;50.812;4.430;2023-02-05T07:17:31;7.90;99.90
24800;DHT22;12897;50.812;4.430;2023-02-05T07:19:59;7.90;99.90
24800;DHT22;12897;50.812;4.430;2023-02-05T07:22:26;7.90;99.90
24800;DHT22;12897;50.812;4.430;2023-02-05T07:24:54;7.90;99.90
24800;DHT22;12897;50.812;4.430;2023-02-05T07:27:23;7.80;99.90
24800;DHT22;12897;50.812;4.430;2023-02-05T07:29:51;7.80;99.90
24800;DHT22;12897;50.812;4.430;2023-02-05T07:32:18;7.80;99.90
24800;DHT22;12897;50.812;4.430;2023-02-05T07:34:47;7.80;99.90
24800;DHT22;12897;50.812;4.430;2023-02-05T07:37:15;7.80;99.90
24800;DHT22;12897;50.812;4.430;2023-02-05T07:39:43;7.80;99.90
24800;DHT22;12897;50.812;4.430;2023-02-05T07:42:10;7.80;99.90
24800;DHT22;12897;50.812;4.430;2023-02-05T07:44:38;7.70;99.90
24800;DHT22;12897;50.812;4.430;2023-02-05T07:47:06;7.70;99.90
24800;DHT22;12897;50.812;4.430;2023-02-05T07:49:33;7.70;99.90
24800;DHT22;12897;50.812;4.430;2023-02-05T07:52:01;7.70;99.90
24800;DHT22;12897;50.812;4.430;2023-02-05T07:54:29;7.70;99.90
24800;DHT22;12897;50.812;4.430;2023-02-05T07:56:56;7.80;99.90
24800;DHT22;12897;50.812;4.430;2023-02-05T07:59:25;7.90;99.90
24800;DHT22;12897;50.812;4.430;2023-02-05T08:01:53;7.80;99.90
24800;DHT22;12897;50.812;4.430;2023-02-05T08:04:21;7.80;99.90
24800;DHT22;12897;50.812;4.430;2023-02-05T08:06:48;7.80;99.90
24800;DHT22;12897;50.812;4.430;2023-02-05T08:09:16;7.80;99.90
24800;DHT22;12897;50.812;4.430;2023-02-05T08:11:43;7.80;99.90
24800;DHT22;12897;50.812;4.430;2023-02-05T08:14:11;7.80;99.90
24800;DHT22;12897;50.812;4.430;2023-02-05T08:16:39;7.80;99.90
24800;DHT22;12897;50.812;4.430;2023-02-05T08:19:12;7.80;99.90
24800;DHT22;12897;50.812;4.430;2023-02-05T08:21:38;7.80;99.90
24800;DHT22;12897;50.812;4.430;2023-02-05T08:24:05;7.80;99.90
24800;DHT22;12897;50.812;4.430;2023-02-05T08:26:33;7.80;99.90
24800;DHT22;12897;50.812;4.430;2023-02-05T08:29:01;7.80;99.90
24800;DHT22;12897;50.812;4.430;2023-02-05T08:31:28;7.80;99.90
24800;DHT22;12897;50.812;4.430;2023-02-05T08:33:56;7.90;99.90
24800;DHT22;12897;50.812;4.430;2023-02-05T08:36:25;7.90;99.90
24800;DHT22;12897;50.812;4.430;2023-02-05T08:38:53;7.90;99.90
24800;DHT22;12897;50.812;4.430;2023-02-05T08:41:21;7.90;99.90
24800;DHT22;12897;50.812;4.430;2023-02-05T08:43:50;7.90;99.90
24800;DHT22;12897;50.812;4.430;2023-02-05T08:46:20;8.00;99.90
24800;DHT22;12897;50.812;4.430;2023-02-05T08:48:50;8.10;99.90
24800;DHT22;12897;50.812;4.430;2023-02-05T08:51:18;8.20;99.90
24800;DHT22;12897;50.812;4.430;2023-02-05T08:53:46;8.20;99.90
24800;DHT22;12897;50.812;4.430;2023-02-05T08:56:13;8.20;99.90
24800;DHT22;12897;50.812;4.430;2023-02-05T08:58:42;8.10;99.90
24800;DHT22;12897;50.812;4.430;2023-02-05T09:01:12;8.10;99.90
24800;DHT22;12897;50.812;4.430;2023-02-05T09:03:40;8.00;99.90
24800;DHT22;12897;50.812;4.430;2023-02-05T09:06:11;8.10;99.90
24800;DHT22;12897;50.812;4.430;2023-02-05T09:08:39;8.10;99.90
24800;DHT22;12897;50.812;4.430;2023-02-05T09:11:07;8.10;99.90
24800;DHT22;12897;50.812;4.430;2023-02-05T09:13:35;8.00;99.90
24800;DHT22;12897;50.812;4.430;2023-02-05T09:16:03;7.80;99.90
24800;DHT22;12897;50.812;4.430;2023-02-05T09:18:31;7.70;99.90
24800;DHT22;12897;50.812;4.430;2023-02-05T09:20:58;7.90;99.90
24800;DHT22;12897;50.812;4.430;2023-02-05T09:23:26;7.90;99.90
24800;DHT22;12897;50.812;4.430;2023-02-05T09:25:53;7.90;99.90
24800;DHT22;12897;50.812;4.430;2023-02-05T09:28:22;8.00;99.90
24800;DHT22;12897;50.812;4.430;2023-02-05T09:30:53;8.00;99.90
24800;DHT22;12897;50.812;4.430;2023-02-05T09:33:22;8.00;99.90
24800;DHT22;12897;50.812;4.430;2023-02-05T09:35:51;7.90;99.90
24800;DHT22;12897;50.812;4.430;2023-02-05T09:38:19;8.00;99.90
24800;DHT22;12897;50.812;4.430;2023-02-05T09:41:14;8.00;99.90
24800;DHT22;12897;50.812;4.430;2023-02-05T09:49:12;7.90;99.90
24800;DHT22;12897;50.812;4.430;2023-02-05T09:51:41;8.00;99.90
24800;DHT22;12897;50.812;4.430;2023-02-05T09:54:30;8.00;99.90
24800;DHT22;12897;50.812;4.430;2023-02-05T09:57:02;7.90;99.90
24800;DHT22;12897;50.812;4.430;2023-02-05T09:59:30;7.90;99.90
24800;DHT22;12897;50.812;4.430;2023-02-05T10:04:40;8.20;99.90
24800;DHT22;12897;50.812;4.430;2023-02-05T10:07:20;8.30;99.90
24800;DHT22;12897;50.812;4.430;2023-02-05T10:10:12;8.30;99.90
24800;DHT22;12897;50.812;4.430;2023-02-05T10:15:46;8.20;99.90
24800;DHT22;12897;50.812;4.430;2023-02-05T10:18:19;8.30;99.90
24800;DHT22;12897;50.812;4.430;2023-02-05T10:20:57;8.40;99.90
24800;DHT22;12897;50.812;4.430;2023-02-05T10:23:44;8.40;99.90
24800;DHT22;12897;50.812;4.430;2023-02-05T10:26:12;8.50;99.90
24800;DHT22;12897;50.812;4.430;2023-02-05T10:31:41;8.50;99.90
24800;DHT22;12897;50.812;4.430;2023-02-05T10:37:07;8.30;99.90
24800;DHT22;12897;50.812;4.430;2023-02-05T10:39:36;8.30;99.90
24800;DHT22;12897;50.812;4.430;2023-02-05T10:44:45;8.50;99.90
24800;DHT22;12897;50.812;4.430;2023-02-05T10:47:23;8.50;99.90
24800;DHT22;12897;50.812;4.430;2023-02-05T10:52:18;8.70;99.90
24800;DHT22;12897;50.812;4.430;2023-02-05T10:54:46;8.70;99.90
24800;DHT22;12897;50.812;4.430;2023-02-05T10:57:19;8.90;99.90
24800;DHT22;12897;50.812;4.430;2023-02-05T11:00:11;9.00;99.90
24800;DHT22;12897;50.812;4.430;2023-02-05T11:02:36;9.00;99.90
24800;DHT22;12897;50.812;4.430;2023-02-05T11:05:02;9.30;99.90
24800;DHT22;12897;50.812;4.430;2023-02-05T11:07:42;9.10;99.90
24800;DHT22;12897;50.812;4.430;2023-02-05T11:10:19;8.90;99.90
24800;DHT22;12897;50.812;4.430;2023-02-05T11:12:52;8.90;99.90
24800;DHT22;12897;50.812;4.430;2023-02-05T11:15:23;9.10;99.90
24800;DHT22;12897;50.812;4.430;2023-02-05T11:18:00;9.10;99.90
24800;DHT22;12897;50.812;4.430;2023-02-05T11:20:28;9.00;99.90
24800;DHT22;12897;50.812;4.430;2023-02-05T11:23:18;9.00;99.90
24800;DHT22;12897;50.812;4.430;2023-02-05T11:25:53;9.00;99.90
24800;DHT22;12897;50.812;4.430;2023-02-05T11:28:29;9.10;99.90
24800;DHT22;12897;50.812;4.430;2023-02-05T11:31:14;9.00;99.90
24800;DHT22;12897;50.812;4.430;2023-02-05T11:33:28;9.00;99.90
24800;DHT22;12897;50.812;4.430;2023-02-05T11:36:00;9.10;99.90
24800;DHT22;12897;50.812;4.430;2023-02-05T11:38:47;9.10;99.90
24800;DHT22;12897;50.812;4.430;2023-02-05T11:41:30;9.20;99.90
24800;DHT22;12897;50.812;4.430;2023-02-05T11:44:01;9.20;99.90
24800;DHT22;12897;50.812;4.430;2023-02-05T11:46:33;9.20;99.90
24800;DHT22;12897;50.812;4.430;2023-02-05T11:49:01;9.30;99.90
24800;DHT22;12897;50.812;4.430;2023-02-05T11:54:37;9.20;99.90
24800;DHT22;12897;50.812;4.430;2023-02-05T11:56:38;9.30;99.90
24800;DHT22;12897;50.812;4.430;2023-02-05T11:59:20;9.20;99.90
24800;DHT22;12897;50.812;4.430;2023-02-05T12:01:45;9.10;99.90
24800;DHT22;12897;50.812;4.430;2023-02-05T12:04:18;8.90;99.90
24800;DHT22;12897;50.812;4.430;2023-02-05T12:09:22;9.10;99.90
24800;DHT22;12897;50.812;4.430;2023-02-05T12:15:18;9.20;99.90
24800;DHT22;12897;50.812;4.430;2023-02-05T12:17:50;9.20;99.90
24800;DHT22;12897;50.812;4.430;2023-02-05T12:20:20;9.10;99.90
24800;DHT22;12897;50.812;4.430;2023-02-05T12:23:18;9.00;99.90
24800;DHT22;12897;50.812;4.430;2023-02-05T12:28:51;9.20;99.90
24800;DHT22;12897;50.812;4.430;2023-02-05T12:31:23;9.30;99.90
24800;DHT22;12897;50.812;4.430;2023-02-05T12:36:51;9.20;99.90
24800;DHT22;12897;50.812;4.430;2023-02-05T12:47:36;9.10;99.90
24800;DHT22;12897;50.812;4.430;2023-02-05T12:50:52;9.20;99.90
24800;DHT22;12897;50.812;4.430;2023-02-05T12:55:26;9.40;99.90
24800;DHT22;12897;50.812;4.430;2023-02-05T12:57:53;9.40;99.90
24800;DHT22;12897;50.812;4.430;2023-02-05T13:00:53;9.40;99.90
24800;DHT22;12897;50.812;4.430;2023-02-05T13:03:28;9.70;99.90
24800;DHT22;12897;50.812;4.430;2023-02-05T13:05:58;9.70;99.90
24800;DHT22;12897;50.812;4.430;2023-02-05T13:14:16;9.50;99.90
24800;DHT22;12897;50.812;4.430;2023-02-05T13:16:54;9.30;99.90
24800;DHT22;12897;50.812;4.430;2023-02-05T13:19:32;9.30;99.90
24800;DHT22;12897;50.812;4.430;2023-02-05T13:22:03;9.20;99.90
24800;DHT22;12897;50.812;4.430;2023-02-05T13:24:50;9.30;99.90
24800;DHT22;12897;50.812;4.430;2023-02-05T13:27:47;9.40;99.90
24800;DHT22;12897;50.812;4.430;2023-02-05T13:30:38;9.60;99.90
24800;DHT22;12897;50.812;4.430;2023-02-05T13:33:07;9.50;99.90
24800;DHT22;12897;50.812;4.430;2023-02-05T13:35:44;9.40;99.90
24800;DHT22;12897;50.812;4.430;2023-02-05T13:38:29;9.30;99.90
24800;DHT22;12897;50.812;4.430;2023-02-05T13:41:19;9.40;99.90
24800;DHT22;12897;50.812;4.430;2023-02-05T13:44:07;9.40;99.90
24800;DHT22;12897;50.812;4.430;2023-02-05T13:49:39;9.40;99.90
24800;DHT22;12897;50.812;4.430;2023-02-05T13:52:21;9.50;99.90
24800;DHT22;12897;50.812;4.430;2023-02-05T13:55:14;9.60;99.90
24800;DHT22;12897;50.812;4.430;2023-02-05T13:58:03;9.80;99.90
24800;DHT22;12897;50.812;4.430;2023-02-05T14:00:25;9.80;99.90
24800;DHT22;12897;50.812;4.430;2023-02-05T14:02:55;9.60;99.90
24800;DHT22;12897;50.812;4.430;2023-02-05T14:05:32;9.70;99.90
24800;DHT22;12897;50.812;4.430;2023-02-05T14:08:01;9.60;99.90
24800;DHT22;12897;50.812;4.430;2023-02-05T14:10:38;9.60;99.90
24800;DHT22;12897;50.812;4.430;2023-02-05T14:13:24;9.60;99.90
24800;DHT22;12897;50.812;4.430;2023-02-05T14:15:53;9.50;99.90
24800;DHT22;12897;50.812;4.430;2023-02-05T14:26:52;9.20;99.90
24800;DHT22;12897;50.812;4.430;2023-02-05T14:29:43;9.30;99.90
24800;DHT22;12897;50.812;4.430;2023-02-05T14:32:54;9.30;99.90
24800;DHT22;12897;50.812;4.430;2023-02-05T14:34:44;9.30;99.90
24800;DHT22;12897;50.812;4.430;2023-02-05T14:37:32;9.30;99.90
24800;DHT22;12897;50.812;4.430;2023-02-05T14:40:12;9.30;99.90
24800;DHT22;12897;50.812;4.430;2023-02-05T14:42:39;9.30;99.90
24800;DHT22;12897;50.812;4.430;2023-02-05T14:45:13;9.40;99.90
24800;DHT22;12897;50.812;4.430;2023-02-05T14:47:42;9.20;99.90
24800;DHT22;12897;50.812;4.430;2023-02-05T14:50:27;9.10;99.90
24800;DHT22;12897;50.812;4.430;2023-02-05T14:53:00;9.10;99.90
24800;DHT22;12897;50.812;4.430;2023-02-05T14:55:39;9.10;99.90
24800;DHT22;12897;50.812;4.430;2023-02-05T14:58:30;9.10;99.90
24800;DHT22;12897;50.812;4.430;2023-02-05T15:00:42;9.20;99.90
24800;DHT22;12897;50.812;4.430;2023-02-05T15:03:22;9.40;99.90
24800;DHT22;12897;50.812;4.430;2023-02-05T15:05:54;9.60;99.90
24800;DHT22;12897;50.812;4.430;2023-02-05T15:11:20;9.30;99.90
24800;DHT22;12897;50.812;4.430;2023-02-05T15:19:50;9.20;99.90
24800;DHT22;12897;50.812;4.430;2023-02-05T15:22:34;9.20;99.90
24800;DHT22;12897;50.812;4.430;2023-02-05T15:25:49;9.20;99.90
24800;DHT22;12897;50.812;4.430;2023-02-05T15:27:45;9.10;99.90
24800;DHT22;12897;50.812;4.430;2023-02-05T15:30:17;9.00;99.90
24800;DHT22;12897;50.812;4.430;2023-02-05T15:32:51;9.00;99.90
24800;DHT22;12897;50.812;4.430;2023-02-05T15:35:20;9.10;99.90
24800;DHT22;12897;50.812;4.430;2023-02-05T15:37:54;9.00;99.90
24800;DHT22;12897;50.812;4.430;2023-02-05T15:40:25;9.10;99.90
24800;DHT22;12897;50.812;4.430;2023-02-05T15:43:23;9.10;99.90
24800;DHT22;12897;50.812;4.430;2023-02-05T15:45:31;9.20;99.90
24800;DHT22;12897;50.812;4.430;2023-02-05T15:51:02;9.40;99.90
24800;DHT22;12897;50.812;4.430;2023-02-05T15:53:31;9.60;99.90
24800;DHT22;12897;50.812;4.430;2023-02-05T15:56:20;9.50;99.90
24800;DHT22;12897;50.812;4.430;2023-02-05T15:58:49;9.40;99.90
24800;DHT22;12897;50.812;4.430;2023-02-05T16:01:36;9.20;99.90
24800;DHT22;12897;50.812;4.430;2023-02-05T16:04:30;9.20;99.90
24800;DHT22;12897;50.812;4.430;2023-02-05T16:06:59;9.10;99.90
24800;DHT22;12897;50.812;4.430;2023-02-05T16:09:28;9.00;99.90
24800;DHT22;12897;50.812;4.430;2023-02-05T16:11:57;8.90;99.90
24800;DHT22;12897;50.812;4.430;2023-02-05T16:14:26;8.80;99.90
24800;DHT22;12897;50.812;4.430;2023-02-05T16:17:23;8.80;99.90
24800;DHT22;12897;50.812;4.430;2023-02-05T16:22:32;8.80;99.90
24800;DHT22;12897;50.812;4.430;2023-02-05T16:24:59;8.70;99.90
24800;DHT22;12897;50.812;4.430;2023-02-05T16:27:39;8.70;99.90
24800;DHT22;12897;50.812;4.430;2023-02-05T16:30:06;8.70;99.90
24800;DHT22;12897;50.812;4.430;2023-02-05T16:32:38;8.70;99.90
24800;DHT22;12897;50.812;4.430;2023-02-05T16:35:30;8.70;99.90
24800;DHT22;12897;50.812;4.430;2023-02-05T16:37:58;8.70;99.90
24800;DHT22;12897;50.812;4.430;2023-02-05T16:40:40;8.70;99.90
24800;DHT22;12897;50.812;4.430;2023-02-05T16:43:25;8.70;99.90
24800;DHT22;12897;50.812;4.430;2023-02-05T16:46:32;8.80;99.90
24800;DHT22;12897;50.812;4.430;2023-02-05T16:48:23;8.70;99.90
24800;DHT22;12897;50.812;4.430;2023-02-05T16:50:51;8.70;99.90
24800;DHT22;12897;50.812;4.430;2023-02-05T16:53:23;8.60;99.90
24800;DHT22;12897;50.812;4.430;2023-02-05T16:55:57;8.50;99.90
24800;DHT22;12897;50.812;4.430;2023-02-05T16:58:25;8.50;99.90
24800;DHT22;12897;50.812;4.430;2023-02-05T17:00:57;8.50;99.90
24800;DHT22;12897;50.812;4.430;2023-02-05T17:03:27;8.40;99.90
24800;DHT22;12897;50.812;4.430;2023-02-05T17:05:59;8.40;99.90
24800;DHT22;12897;50.812;4.430;2023-02-05T17:08:32;8.20;99.90
24800;DHT22;12897;50.812;4.430;2023-02-05T17:11:06;8.20;99.90
24800;DHT22;12897;50.812;4.430;2023-02-05T17:13:42;8.30;99.90
24800;DHT22;12897;50.812;4.430;2023-02-05T17:16:31;8.30;99.90
24800;DHT22;12897;50.812;4.430;2023-02-05T17:19:03;8.10;99.90
24800;DHT22;12897;50.812;4.430;2023-02-05T17:21:35;8.10;99.90
24800;DHT22;12897;50.812;4.430;2023-02-05T17:24:03;8.00;99.90
24800;DHT22;12897;50.812;4.430;2023-02-05T17:26:36;7.90;99.90
24800;DHT22;12897;50.812;4.430;2023-02-05T17:29:05;7.80;99.90
24800;DHT22;12897;50.812;4.430;2023-02-05T17:31:36;7.70;99.90
24800;DHT22;12897;50.812;4.430;2023-02-05T17:34:04;7.80;99.90
24800;DHT22;12897;50.812;4.430;2023-02-05T17:36:32;7.70;99.90
24800;DHT22;12897;50.812;4.430;2023-02-05T17:39:00;7.70;99.90
24800;DHT22;12897;50.812;4.430;2023-02-05T17:41:30;7.60;99.90
24800;DHT22;12897;50.812;4.430;2023-02-05T17:44:16;7.60;99.90
24800;DHT22;12897;50.812;4.430;2023-02-05T17:46:43;7.80;99.90
24800;DHT22;12897;50.812;4.430;2023-02-05T17:49:12;7.80;99.90
24800;DHT22;12897;50.812;4.430;2023-02-05T17:51:39;7.80;99.90
24800;DHT22;12897;50.812;4.430;2023-02-05T17:54:19;7.90;99.90